Time;durP1;ratioP1;P1;durP2;ratioP2;P2;SDS_P1;SDS_P2;PMS_P1;PMS_P2;Temp;Humidity;BMP_temperature;BMP_pressure;BME280_temperature;BME280_humidity;BME280_pressure;Samples;Min_cycle;Max_cycle;Signal;HPM_P1;HPM_P2
2022/04/27 00:00:06;;;;;;;71.37;15.40;;;8.30;93.40;;;;;;5069748;28;20481;-75
2022/04/27 00:02:33;;;;;;;135.33;20.80;;;8.30;93.10;;;;;;5063046;28;20493;-75
2022/04/27 00:05:00;;;;;;;58.10;13.70;;;;;;;;;;5080646;28;20479;-76
2022/04/27 00:07:27;;;;;;;39.77;13.50;;;8.40;92.60;;;;;;5066999;28;20753;-72
2022/04/27 00:09:54;;;;;;;21.37;11.30;;;8.40;92.60;;;;;;5066356;28;21142;-77
2022/04/27 00:12:21;;;;;;;41.23;11.20;;;;;;;;;;5061534;28;20484;-75
2022/04/27 00:14:49;;;;;;;45.13;12.67;;;;;;;;;;5072030;28;20487;-78
2022/04/27 00:17:16;;;;;;;40.83;12.40;;;;;;;;;;5068784;28;21109;-75
2022/04/27 00:19:44;;;;;;;46.27;12.83;;;;;;;;;;5068214;28;20479;-77
2022/04/27 00:22:12;;;;;;;13.27;9.47;;;8.40;92.20;;;;;;5068929;28;20474;-75
2022/04/27 00:24:39;;;;;;;131.50;20.40;;;;;;;;;;5066713;28;21240;-73
2022/04/27 00:27:06;;;;;;;40.40;11.27;;;;;;;;;;5070101;28;20572;-72
2022/04/27 00:29:33;;;;;;;24.63;14.50;;;7.90;92.10;;;;;;5060180;28;20491;-73
2022/04/27 00:32:01;;;;;;;15.73;8.97;;;7.80;92.80;;;;;;5081951;28;20487;-75
2022/04/27 00:34:28;;;;;;;22.90;14.10;;;7.70;93.60;;;;;;5068583;28;21128;-73
2022/04/27 00:36:55;;;;;;;45.17;13.43;;;;;;;;;;5070584;28;20885;-75
2022/04/27 00:39:22;;;;;;;14.90;9.37;;;7.50;94.40;;;;;;5076380;28;20516;-72
2022/04/27 00:41:59;;;;;;;19.50;10.67;;;;;;;;;;5070256;28;20493;-73
2022/04/27 00:44:26;;;;;;;15.10;8.87;;;7.50;94.20;;;;;;5067420;28;20768;-72
2022/04/27 00:46:53;;;;;;;10.70;7.80;;;7.50;94.40;;;;;;5067791;28;20487;-73
2022/04/27 00:49:21;;;;;;;16.97;11.13;;;7.60;94.00;;;;;;5073559;28;20483;-75
2022/04/27 00:51:48;;;;;;;12.60;9.83;;;7.60;94.30;;;;;;5078018;28;21298;-75
2022/04/27 00:54:18;;;;;;;14.20;9.23;;;7.50;94.60;;;;;;5074483;28;20957;-76
2022/04/27 00:56:45;;;;;;;15.93;8.63;;;7.50;94.30;;;;;;5075433;28;20628;-74
2022/04/27 00:59:13;;;;;;;15.17;8.43;;;7.50;93.60;;;;;;5072302;28;20493;-73
2022/04/27 01:01:40;;;;;;;70.40;15.50;;;7.30;93.30;;;;;;5071839;28;20828;-74
2022/04/27 01:04:08;;;;;;;10.47;7.63;;;7.20;93.90;;;;;;5069046;28;20480;-72
2022/04/27 01:06:36;;;;;;;63.37;14.27;;;6.80;94.90;;;;;;5074611;28;21043;-70
2022/04/27 01:09:03;;;;;;;53.47;14.10;;;6.80;95.20;;;;;;5073095;28;20480;-74
2022/04/27 01:11:31;;;;;;;53.53;14.27;;;7.00;95.30;;;;;;5074515;28;21046;-73
2022/04/27 01:13:58;;;;;;;24.43;11.00;;;7.00;94.70;;;;;;5077157;28;20479;-75
2022/04/27 01:16:25;;;;;;;34.83;11.77;;;;;;;;;;5073235;28;20473;-73
2022/04/27 01:18:52;;;;;;;12.10;9.47;;;7.10;95.00;;;;;;5075881;28;20553;-76
2022/04/27 01:21:22;;;;;;;34.67;12.33;;;;;;;;;;5073353;28;20494;-73
2022/04/27 01:23:48;;;;;;;16.70;8.57;;;7.20;94.00;;;;;;5073472;28;20488;-73
2022/04/27 01:26:16;;;;;;;30.63;9.20;;;;;;;;;;5069944;28;20516;-71
2022/04/27 01:28:45;;;;;;;89.10;15.73;;;7.00;93.30;;;;;;5073153;28;20489;-74
2022/04/27 01:31:12;;;;;;;34.77;10.40;;;7.10;93.70;;;;;;5070326;28;20488;-70
2022/04/27 01:33:40;;;;;;;73.20;16.93;;;7.10;94.00;;;;;;5051491;28;20489;-75
2022/04/27 01:36:09;;;;;;;43.70;12.67;;;7.10;93.80;;;;;;5072625;28;20473;-72
2022/04/27 01:38:39;;;;;;;84.57;17.07;;;7.20;93.60;;;;;;5071972;28;20493;-73
2022/04/27 01:41:06;;;;;;;33.50;9.90;;;;;;;;;;5079055;28;20479;-74
2022/04/27 01:43:33;;;;;;;119.17;18.67;;;7.00;92.70;;;;;;5077066;28;20557;-76
2022/04/27 01:46:00;;;;;;;11.70;7.80;;;7.10;93.00;;;;;;5075815;28;20497;-72
2022/04/27 01:48:27;;;;;;;34.03;11.60;;;;;;;;;;5067735;28;20695;-72
2022/04/27 01:50:54;;;;;;;20.30;11.00;;;6.70;93.20;;;;;;5065125;28;20479;-76
2022/04/27 01:56:08;;;;;;;25.37;9.83;;;6.70;93.50;;;;;;5054170;28;20589;-73
2022/04/27 01:58:35;;;;;;;132.30;20.10;;;6.70;93.20;;;;;;5071573;28;20473;-74
2022/04/27 02:01:02;;;;;;;47.57;12.00;;;;;;;;;;5062286;28;20493;-72
2022/04/27 02:03:29;;;;;;;42.63;12.17;;;;;;;;;;5054679;27;20541;-75
2022/04/27 02:05:57;;;;;;;18.30;8.97;;;6.70;93.20;;;;;;5077662;28;20490;-73
2022/04/27 02:08:23;;;;;;;13.93;9.20;;;6.80;93.20;;;;;;5075974;27;20681;-71
2022/04/27 02:10:50;;;;;;;16.20;8.50;;;6.80;93.00;;;;;;5068141;28;20489;-71
2022/04/27 02:13:18;;;;;;;36.70;11.87;;;6.80;92.90;;;;;;5057245;28;20483;-73
2022/04/27 02:15:46;;;;;;;16.03;9.90;;;6.90;93.20;;;;;;5073907;28;20495;-73
2022/04/27 02:18:13;;;;;;;16.47;9.23;;;6.80;93.00;;;;;;5082366;28;20586;-76
2022/04/27 02:20:39;;;;;;;34.47;11.00;;;6.70;92.50;;;;;;5068061;28;20476;-76
2022/04/27 02:23:06;;;;;;;15.07;9.30;;;6.50;92.30;;;;;;5070038;28;20473;-73
2022/04/27 02:25:33;;;;;;;26.57;13.73;;;6.50;92.30;;;;;;5071395;27;20491;-72
2022/04/27 02:27:59;;;;;;;28.90;11.30;;;6.40;92.50;;;;;;5074532;28;20494;-73
2022/04/27 02:30:28;;;;;;;27.97;11.07;;;6.20;93.40;;;;;;5074544;28;20488;-72
2022/04/27 02:32:56;;;;;;;10.57;7.77;;;6.20;93.70;;;;;;5077627;28;20485;-73
2022/04/27 02:35:24;;;;;;;10.40;8.27;;;6.20;93.60;;;;;;5065391;28;20919;-74
2022/04/27 02:37:51;;;;;;;9.13;8.10;;;6.20;93.90;;;;;;5066177;28;20480;-72
2022/04/27 02:40:17;;;;;;;11.00;8.60;;;6.20;93.60;;;;;;5068374;28;20480;-74
2022/04/27 02:42:44;;;;;;;13.80;8.07;;;6.20;93.50;;;;;;5071419;28;20472;-75
2022/04/27 02:45:11;;;;;;;9.73;7.40;;;6.20;93.20;;;;;;5061047;28;20488;-75
2022/04/27 02:47:39;;;;;;;16.30;10.70;;;6.20;92.90;;;;;;5073541;28;20492;-75
2022/04/27 02:52:51;;;;;;;8.80;7.30;;;6.20;93.30;;;;;;5057041;28;20502;-72
2022/04/27 02:55:19;;;;;;;8.43;6.70;;;6.10;93.60;;;;;;5070223;28;20484;-76
2022/04/27 02:57:46;;;;;;;10.07;7.30;;;6.10;93.60;;;;;;5068554;28;20479;-75
2022/04/27 03:00:13;;;;;;;6.87;6.00;;;6.10;93.30;;;;;;5071106;28;20985;-73
2022/04/27 03:02:41;;;;;;;10.83;8.53;;;6.10;93.10;;;;;;5070927;28;20483;-72
2022/04/27 03:05:08;;;;;;;8.73;7.37;;;6.00;92.70;;;;;;5063756;28;20484;-72
2022/04/27 03:07:35;;;;;;;19.43;12.73;;;5.90;92.70;;;;;;5062767;28;20479;-72
2022/04/27 03:10:02;;;;;;;12.80;8.47;;;5.70;93.20;;;;;;5080644;28;20482;-71
2022/04/27 03:12:28;;;;;;;17.97;10.60;;;5.60;93.30;;;;;;5068272;28;20494;-71
2022/04/27 03:14:55;;;;;;;13.20;8.20;;;5.70;93.50;;;;;;5053529;28;20480;-71
2022/04/27 03:17:22;;;;;;;11.13;8.00;;;5.70;93.50;;;;;;5069561;28;20486;-75
2022/04/27 03:19:50;;;;;;;9.80;6.57;;;5.80;93.70;;;;;;5061622;28;20500;-73
2022/04/27 03:22:17;;;;;;;8.73;7.80;;;5.90;93.30;;;;;;5082194;28;20473;-74
2022/04/27 03:24:43;;;;;;;13.50;9.23;;;5.80;93.10;;;;;;5069734;28;20502;-74
2022/04/27 03:27:10;;;;;;;9.50;7.30;;;5.90;93.10;;;;;;5066574;28;20477;-73
2022/04/27 03:29:37;;;;;;;21.20;12.47;;;5.80;92.80;;;;;;5065011;28;20472;-75
2022/04/27 03:32:05;;;;;;;11.53;8.03;;;5.80;92.70;;;;;;5059218;28;20484;-74
2022/04/27 03:34:31;;;;;;;26.73;12.93;;;5.80;92.60;;;;;;5064553;28;21501;-72
2022/04/27 03:36:59;;;;;;;14.70;7.07;;;5.80;92.40;;;;;;5043132;28;20840;-71
2022/04/27 03:39:26;;;;;;;13.30;8.30;;;5.70;92.30;;;;;;5047201;28;20564;-73
2022/04/27 03:41:53;;;;;;;20.93;9.73;;;5.70;92.20;;;;;;5065589;28;20511;-72
2022/04/27 03:44:19;;;;;;;8.80;7.00;;;5.70;92.40;;;;;;5066542;28;20493;-71
2022/04/27 03:46:46;;;;;;;18.87;8.43;;;;;;;;;;5051999;28;20495;-73
2022/04/27 03:49:13;;;;;;;17.57;10.87;;;5.60;92.30;;;;;;5084549;28;20481;-75
2022/04/27 03:51:40;;;;;;;40.13;15.60;;;5.60;92.90;;;;;;5062903;28;20477;-72
2022/04/27 03:54:09;;;;;;;12.17;8.80;;;5.70;92.90;;;;;;5064288;28;20475;-73
2022/04/27 03:56:37;;;;;;;59.47;15.47;;;5.70;92.60;;;;;;5081166;28;20561;-75
2022/04/27 03:59:04;;;;;;;16.50;10.17;;;5.60;92.80;;;;;;5062921;28;20475;-74
2022/04/27 04:01:31;;;;;;;32.83;12.27;;;5.70;92.80;;;;;;5056231;28;20480;-73
2022/04/27 04:03:59;;;;;;;11.00;7.93;;;5.60;92.50;;;;;;5053874;28;20710;-75
2022/04/27 04:06:26;;;;;;;14.27;9.63;;;5.60;92.30;;;;;;5046274;28;20939;-73
2022/04/27 04:08:52;;;;;;;13.60;8.00;;;5.50;92.30;;;;;;5045221;28;20492;-74
2022/04/27 04:11:20;;;;;;;12.63;8.57;;;5.50;92.30;;;;;;5048569;28;21005;-76
2022/04/27 04:13:47;;;;;;;16.60;9.30;;;5.40;91.80;;;;;;5044879;28;20501;-74
2022/04/27 04:16:14;;;;;;;11.13;7.40;;;5.20;91.70;;;;;;5047106;28;20881;-75
2022/04/27 04:18:40;;;;;;;26.63;11.27;;;5.00;92.40;;;;;;5045478;28;20488;-73
2022/04/27 04:21:07;;;;;;;9.70;7.73;;;5.00;92.70;;;;;;5048637;28;20481;-73
2022/04/27 04:23:34;;;;;;;18.50;11.77;;;4.90;93.10;;;;;;5042107;28;20472;-72
2022/04/27 04:28:49;;;;;;;10.37;8.10;;;4.80;94.00;;;;;;5023163;28;20481;-75
2022/04/27 04:31:17;;;;;;;13.67;8.70;;;4.80;94.20;;;;;;5050372;28;20943;-73
2022/04/27 04:33:44;;;;;;;14.20;8.93;;;5.00;93.50;;;;;;5061364;28;22206;-72
2022/04/27 04:36:11;;;;;;;9.17;7.27;;;5.50;94.00;;;;;;5058356;28;20481;-75
2022/04/27 04:38:38;;;;;;;12.00;9.50;;;5.00;93.30;;;;;;5059474;28;20559;-72
2022/04/27 04:41:05;;;;;;;17.40;8.60;;;5.10;93.60;;;;;;5052002;28;20473;-72
2022/04/27 04:43:33;;;;;;;20.90;10.23;;;5.20;93.50;;;;;;5059440;28;20483;-71
2022/04/27 04:46:01;;;;;;;9.27;7.20;;;5.20;93.40;;;;;;5057623;28;20511;-73
2022/04/27 04:48:28;;;;;;;12.87;6.27;;;5.30;93.30;;;;;;5045661;28;20477;-75
2022/04/27 04:50:54;;;;;;;10.80;8.63;;;5.30;93.00;;;;;;5073090;28;20501;-72
2022/04/27 04:53:21;;;;;;;14.30;8.50;;;5.30;92.70;;;;;;5060461;28;20492;-72
2022/04/27 04:55:48;;;;;;;7.93;6.97;;;5.20;92.60;;;;;;5053590;28;20529;-72
2022/04/27 04:58:14;;;;;;;11.03;7.40;;;5.20;92.70;;;;;;5057523;28;20484;-72
2022/04/27 05:00:42;;;;;;;12.47;9.37;;;5.10;92.70;;;;;;5058219;28;20825;-74
2022/04/27 05:03:11;;;;;;;10.20;7.97;;;5.10;92.70;;;;;;5053749;28;20480;-75
2022/04/27 05:05:40;;;;;;;16.30;10.13;;;5.20;93.10;;;;;;5056032;28;20487;-73
2022/04/27 05:08:08;;;;;;;9.30;7.70;;;5.30;93.40;;;;;;5055771;28;20481;-71
2022/04/27 05:10:35;;;;;;;42.73;13.20;;;5.50;93.40;;;;;;5059895;28;20483;-75
2022/04/27 05:13:02;;;;;;;8.23;6.77;;;5.50;93.60;;;;;;5058706;28;20477;-72
2022/04/27 05:15:29;;;;;;;13.83;9.47;;;5.60;93.60;;;;;;5057195;28;20487;-74
2022/04/27 05:17:56;;;;;;;13.80;8.70;;;5.60;93.40;;;;;;5054710;28;20485;-75
2022/04/27 05:20:24;;;;;;;11.17;7.33;;;5.70;93.30;;;;;;5053290;28;20484;-73
2022/04/27 05:22:51;;;;;;;8.63;6.63;;;5.80;93.50;;;;;;5060192;28;20493;-75
2022/04/27 05:25:18;;;;;;;13.67;8.30;;;5.80;93.20;;;;;;5061788;28;20824;-71
2022/04/27 05:27:45;;;;;;;15.43;9.07;;;5.70;93.40;;;;;;5057190;28;20988;-74
2022/04/27 05:32:56;;;;;;;19.80;13.47;;;5.90;93.50;;;;;;5059993;28;20491;-72
2022/04/27 05:35:25;;;;;;;12.90;7.73;;;6.00;93.90;;;;;;5062968;28;20490;-73
2022/04/27 05:37:52;;;;;;;14.17;8.00;;;6.10;94.10;;;;;;5062779;28;20485;-73
2022/04/27 05:40:20;;;;;;;7.87;6.90;;;6.10;94.00;;;;;;5055997;28;20489;-76
2022/04/27 05:42:48;;;;;;;15.30;10.73;;;6.00;94.30;;;;;;5061404;28;20485;-74
2022/04/27 05:45:16;;;;;;;11.43;9.30;;;5.80;94.70;;;;;;5060659;28;20639;-73
2022/04/27 05:47:43;;;;;;;28.43;11.00;;;;;;;;;;5051345;28;21443;-73
2022/04/27 05:50:10;;;;;;;15.77;9.93;;;5.70;95.20;;;;;;5059915;28;20479;-75
2022/04/27 05:52:56;;;;;;;22.53;13.73;;;5.70;95.70;;;;;;5057189;28;20473;-73
2022/04/27 05:55:23;;;;;;;14.50;11.23;;;6.00;95.80;;;;;;5041016;28;20478;-75
2022/04/27 05:57:50;;;;;;;15.83;11.37;;;6.20;96.00;;;;;;5063172;28;20491;-71
2022/04/27 06:00:19;;;;;;;15.37;10.40;;;6.40;95.80;;;;;;5063156;28;20564;-72
2022/04/27 06:02:46;;;;;;;16.53;13.10;;;6.60;96.10;;;;;;5063187;28;20472;-72
2022/04/27 06:05:13;;;;;;;17.80;12.67;;;6.80;96.20;;;;;;5048016;28;20477;-71
2022/04/27 06:07:40;;;;;;;24.40;15.43;;;6.90;96.30;;;;;;5048968;28;20509;-71
2022/04/27 06:10:10;;;;;;;24.40;13.47;;;7.10;96.70;;;;;;5063918;28;20835;-74
2022/04/27 06:12:43;;;;;;;33.63;19.50;;;7.30;96.90;;;;;;5064015;28;20483;-75
2022/04/27 06:15:12;;;;;;;17.70;12.27;;;7.40;96.70;;;;;;5063230;28;20478;-77
2022/04/27 06:17:39;;;;;;;45.83;16.20;;;;;;;;;;5044998;28;20501;-75
2022/04/27 06:20:06;;;;;;;14.30;11.33;;;7.60;96.50;;;;;;5058084;28;20490;-73
2022/04/27 06:22:33;;;;;;;42.97;18.83;;;8.10;97.10;;;;;;5053567;28;20467;-72
2022/04/27 06:25:00;;;;;;;17.63;12.50;;;8.10;97.30;;;;;;5060010;28;20483;-70
2022/04/27 06:27:28;;;;;;;21.77;13.70;;;8.60;97.80;;;;;;5063434;28;20474;-72
2022/04/27 06:29:54;;;;;;;20.30;14.87;;;8.60;98.00;;;;;;5062376;28;20484;-74
2022/04/27 06:32:21;;;;;;;24.50;14.70;;;9.00;98.20;;;;;;5062116;28;20485;-74
2022/04/27 06:34:48;;;;;;;17.87;13.13;;;9.40;98.00;;;;;;5060950;28;20481;-74
2022/04/27 06:37:14;;;;;;;17.60;13.97;;;9.80;97.80;;;;;;5062765;28;20991;-75
2022/04/27 06:39:43;;;;;;;38.17;19.03;;;10.30;96.40;;;;;;5061945;28;20482;-73
2022/04/27 06:42:10;;;;;;;17.70;13.20;;;10.30;96.70;;;;;;5060197;28;20474;-76
2022/04/27 06:44:38;;;;;;;44.97;20.93;;;10.50;96.50;;;;;;5062581;28;20486;-72
2022/04/27 06:47:06;;;;;;;24.30;15.47;;;10.70;96.20;;;;;;5061084;28;20495;-75
2022/04/27 06:49:33;;;;;;;26.87;18.87;;;10.90;96.40;;;;;;5059046;28;20480;-73
2022/04/27 06:52:00;;;;;;;18.50;14.83;;;11.10;96.40;;;;;;5059472;28;20832;-81
2022/04/27 06:54:27;;;;;;;26.83;17.97;;;11.30;96.60;;;;;;5052919;28;20471;-80
2022/04/27 06:56:53;;;;;;;23.23;15.97;;;11.40;96.40;;;;;;5056518;28;20467;-77
2022/04/27 06:59:20;;;;;;;24.23;18.30;;;11.60;96.70;;;;;;5063888;28;20478;-75
2022/04/27 07:01:48;;;;;;;29.43;19.20;;;11.80;96.90;;;;;;5072660;28;20482;-73
2022/04/27 07:04:16;;;;;;;28.30;18.57;;;12.00;96.50;;;;;;5067464;28;20500;-76
2022/04/27 07:06:43;;;;;;;33.33;22.60;;;12.10;95.80;;;;;;5074989;28;20482;-74
2022/04/27 07:09:11;;;;;;;35.10;22.93;;;12.30;96.30;;;;;;5072068;28;20495;-77
2022/04/27 07:11:37;;;;;;;33.63;22.87;;;12.50;96.10;;;;;;5067089;28;20964;-77
2022/04/27 07:14:04;;;;;;;33.67;21.57;;;12.60;95.70;;;;;;5073878;28;20473;-76
2022/04/27 07:16:31;;;;;;;48.30;29.13;;;12.70;95.20;;;;;;5064918;28;20478;-72
2022/04/27 07:18:59;;;;;;;31.50;22.73;;;12.80;95.00;;;;;;5060242;28;20488;-71
2022/04/27 07:21:26;;;;;;;36.77;24.53;;;12.60;94.40;;;;;;5064947;28;20833;-74
2022/04/27 07:23:53;;;;;;;39.07;25.83;;;12.50;94.70;;;;;;5064786;28;20491;-72
2022/04/27 07:26:21;;;;;;;32.20;21.87;;;12.40;94.60;;;;;;5060751;28;20481;-74
2022/04/27 07:28:47;;;;;;;43.63;24.60;;;12.20;94.90;;;;;;5066577;28;20480;-76
2022/04/27 07:31:14;;;;;;;46.40;26.90;;;12.10;95.10;;;;;;5066732;28;20476;-74
2022/04/27 07:33:42;;;;;;;36.63;23.60;;;12.00;95.10;;;;;;5069028;28;20491;-76
2022/04/27 07:36:11;;;;;;;31.63;19.60;;;11.90;95.00;;;;;;5069146;28;20515;-77
2022/04/27 07:38:39;;;;;;;58.40;29.40;;;11.80;95.30;;;;;;5069362;28;21063;-72
2022/04/27 07:41:06;;;;;;;45.17;25.80;;;11.80;95.00;;;;;;5062634;28;20495;-75
2022/04/27 07:43:33;;;;;;;91.97;33.93;;;;;;;;;;5058619;28;20482;-74
2022/04/27 07:46:00;;;;;;;41.00;27.30;;;11.70;94.80;;;;;;5064833;28;20483;-77
2022/04/27 07:48:32;;;;;;;43.47;26.83;;;11.70;94.90;;;;;;5068703;28;20905;-74
2022/04/27 07:50:59;;;;;;;73.50;32.83;;;;;;;;;;5066306;28;20668;-72
2022/04/27 07:53:27;;;;;;;43.47;27.37;;;11.80;95.30;;;;;;5066152;28;20946;-71
2022/04/27 07:55:54;;;;;;;34.40;22.60;;;11.90;95.40;;;;;;5068356;28;20485;-74
2022/04/27 07:58:21;;;;;;;31.10;21.27;;;11.90;94.90;;;;;;5066906;28;20864;-77
2022/04/27 08:00:48;;;;;;;36.90;24.63;;;12.00;94.80;;;;;;5067367;28;20891;-71
2022/04/27 08:03:14;;;;;;;42.60;26.23;;;12.00;95.20;;;;;;5061535;28;20473;-73
2022/04/27 08:05:42;;;;;;;50.93;30.03;;;12.10;94.90;;;;;;5064859;28;20468;-76
2022/04/27 08:08:09;;;;;;;37.30;24.50;;;12.10;95.00;;;;;;5068505;28;20483;-74
2022/04/27 08:10:38;;;;;;;47.77;27.87;;;12.20;94.90;;;;;;5068129;28;20854;-75
2022/04/27 08:13:04;;;;;;;44.50;28.07;;;12.20;94.70;;;;;;5067262;28;20485;-72
2022/04/27 08:15:32;;;;;;;37.00;24.03;;;12.30;94.70;;;;;;5066693;28;20496;-76
2022/04/27 08:18:00;;;;;;;36.53;22.50;;;12.40;95.00;;;;;;5065756;28;20485;-75
2022/04/27 08:23:16;;;;;;;35.13;24.60;;;12.80;94.80;;;;;;5069133;28;20542;-74
2022/04/27 08:25:45;;;;;;;31.93;23.17;;;12.90;94.60;;;;;;5066174;28;20485;-76
2022/04/27 08:28:12;;;;;;;32.60;24.13;;;13.00;94.90;;;;;;5068129;28;21129;-73
2022/04/27 08:30:40;;;;;;;34.80;26.33;;;13.10;94.70;;;;;;5067044;28;20499;-76
2022/04/27 08:33:08;;;;;;;29.07;22.00;;;13.40;95.60;;;;;;5064936;28;20833;-73
2022/04/27 08:35:36;;;;;;;31.13;22.03;;;13.60;92.90;;;;;;5062342;28;20480;-72
2022/04/27 08:38:04;;;;;;;35.30;22.03;;;13.60;93.10;;;;;;5064777;28;20482;-75
2022/04/27 08:40:32;;;;;;;30.03;23.17;;;13.60;93.30;;;;;;5066939;28;21015;-76
2022/04/27 08:43:01;;;;;;;28.63;22.40;;;13.70;93.70;;;;;;5067027;28;20487;-75
2022/04/27 08:45:28;;;;;;;29.17;21.30;;;13.80;93.20;;;;;;5065002;28;20471;-74
2022/04/27 08:47:55;;;;;;;28.17;21.17;;;13.90;93.40;;;;;;5067052;28;20508;-72
2022/04/27 08:50:29;;;;;;;26.70;19.93;;;14.10;93.10;;;;;;5065110;28;20949;-73
2022/04/27 08:52:56;;;;;;;29.93;21.10;;;14.30;92.60;;;;;;5056285;28;20469;-74
2022/04/27 08:55:27;;;;;;;25.10;19.93;;;14.50;92.80;;;;;;5067695;28;21360;-77
2022/04/27 08:57:54;;;;;;;28.23;20.23;;;14.60;92.80;;;;;;5053127;28;20485;-75
2022/04/27 09:00:23;;;;;;;30.50;20.70;;;14.70;91.90;;;;;;5067746;28;20932;-72
2022/04/27 09:02:53;;;;;;;24.60;18.40;;;15.00;92.60;;;;;;5064181;28;20867;-72
2022/04/27 09:05:22;;;;;;;28.63;20.90;;;15.10;92.10;;;;;;5065987;28;20564;-74
2022/04/27 09:07:51;;;;;;;45.77;26.63;;;15.20;92.00;;;;;;5071434;28;20471;-72
2022/04/27 09:10:21;;;;;;;27.20;20.57;;;15.40;92.00;;;;;;5064677;28;20504;-72
2022/04/27 09:12:51;;;;;;;23.87;19.47;;;15.60;92.60;;;;;;5072147;28;20481;-72
2022/04/27 09:15:19;;;;;;;35.77;24.83;;;16.10;92.30;;;;;;5068209;28;20482;-75
2022/04/27 09:20:52;;;;;;;30.10;23.77;;;16.80;92.50;;;;;;5057852;28;20491;-73
2022/04/27 09:23:24;;;;;;;33.20;22.40;;;17.00;92.20;;;;;;5070446;28;20484;-73
2022/04/27 09:25:53;;;;;;;27.93;19.87;;;17.30;91.00;;;;;;5066396;28;21039;-73
2022/04/27 09:28:23;;;;;;;23.27;18.03;;;17.70;91.70;;;;;;5072123;28;20876;-79
2022/04/27 09:30:51;;;;;;;23.63;19.87;;;18.00;90.80;;;;;;5071369;28;20552;-78
2022/04/27 09:33:33;;;;;;;28.57;20.27;;;18.20;88.20;;;;;;5073029;28;20520;-75
2022/04/27 09:36:01;;;;;;;34.97;20.20;;;18.20;87.60;;;;;;5057824;28;20740;-77
2022/04/27 09:38:38;;;;;;;22.30;19.07;;;18.20;88.00;;;;;;5070627;28;20553;-74
2022/04/27 09:41:05;;;;;;;24.87;19.60;;;18.20;87.70;;;;;;5060731;28;20488;-77
2022/04/27 09:43:43;;;;;;;40.37;23.87;;;18.00;86.70;;;;;;5070658;28;20474;-73
2022/04/27 09:46:22;;;;;;;21.10;17.60;;;18.00;87.40;;;;;;5069668;28;20515;-72
2022/04/27 09:49:09;;;;;;;33.80;19.30;;;18.00;87.80;;;;;;5070638;28;20477;-77
2022/04/27 09:51:36;;;;;;;62.17;24.00;;;17.90;87.50;;;;;;5062068;28;20472;-80
2022/04/27 09:54:04;;;;;;;21.67;17.00;;;17.90;87.70;;;;;;5071355;28;20872;-77
2022/04/27 09:56:38;;;;;;;34.20;19.23;;;16.80;87.00;;;;;;5067764;28;20844;-77
2022/04/27 09:59:06;;;;;;;21.33;18.10;;;18.30;88.90;;;;;;5071984;28;20553;-77
2022/04/27 10:01:36;;;;;;;24.27;19.40;;;18.60;89.20;;;;;;5070571;28;20613;-74
2022/04/27 10:04:05;;;;;;;17.40;15.50;;;19.00;88.00;;;;;;5062823;28;20449;-72
2022/04/27 10:06:32;;;;;;;27.90;19.80;;;19.10;86.50;;;;;;5070093;28;20560;-73
2022/04/27 10:09:00;;;;;;;20.60;16.50;;;19.10;85.50;;;;;;5069614;28;20474;-75
2022/04/27 10:11:28;;;;;;;19.67;16.17;;;19.00;85.10;;;;;;5060927;28;20515;-75
2022/04/27 10:13:56;;;;;;;17.73;15.93;;;18.70;83.30;;;;;;5070127;28;20662;-78
2022/04/27 10:16:23;;;;;;;22.20;17.40;;;18.40;84.00;;;;;;5072781;28;20585;-75
2022/04/27 10:18:50;;;;;;;19.27;16.83;;;18.30;84.00;;;;;;5070179;28;20481;-75
2022/04/27 10:21:39;;;;;;;19.07;16.30;;;18.30;86.50;;;;;;5066370;28;20474;-75
2022/04/27 10:24:06;;;;;;;18.73;15.30;;;18.40;86.50;;;;;;5061837;28;20660;-74
2022/04/27 10:26:34;;;;;;;22.20;17.57;;;18.60;87.50;;;;;;5066788;28;20582;-73
2022/04/27 10:29:02;;;;;;;15.90;14.20;;;18.70;83.90;;;;;;5071468;28;20577;-76
2022/04/27 10:32:02;;;;;;;17.37;15.57;;;18.80;84.50;;;;;;5069530;28;20484;-76
2022/04/27 10:34:29;;;;;;;18.03;15.63;;;18.80;83.80;;;;;;5067880;28;21143;-76
2022/04/27 10:36:59;;;;;;;18.87;16.50;;;18.80;84.60;;;;;;5068682;28;20565;-77
2022/04/27 10:39:27;;;;;;;16.37;13.17;;;;;;;;;;5072795;28;20453;-75
2022/04/27 10:41:57;;;;;;;16.87;13.83;;;18.40;82.10;;;;;;5070983;28;20474;-74
2022/04/27 10:45:08;;;;;;;16.03;12.27;;;18.20;83.10;;;;;;5070392;28;20765;-75
2022/04/27 10:47:37;;;;;;;34.03;16.50;;;18.10;83.40;;;;;;5059364;28;20578;-76
2022/04/27 10:50:26;;;;;;;13.90;11.80;;;18.10;84.60;;;;;;5071871;28;20486;-75
2022/04/27 10:52:55;;;;;;;16.77;13.50;;;18.10;84.80;;;;;;5071734;28;20478;-72
2022/04/27 10:55:41;;;;;;;19.50;14.43;;;18.30;84.70;;;;;;5072165;28;20478;-75
2022/04/27 10:58:16;;;;;;;15.20;12.90;;;18.50;84.50;;;;;;5056433;28;20482;-70
2022/04/27 11:01:20;;;;;;;27.10;14.60;;;18.50;84.40;;;;;;5068312;28;20461;-72
2022/04/27 11:03:58;;;;;;;13.07;11.77;;;18.50;81.40;;;;;;5005689;28;20480;-77
2022/04/27 11:06:25;;;;;;;11.87;10.83;;;18.50;81.30;;;;;;5004638;28;20488;-72
2022/04/27 11:09:10;;;;;;;12.53;10.33;;;18.50;83.10;;;;;;5042011;28;20659;-76
2022/04/27 11:11:51;;;;;;;15.10;13.57;;;18.40;81.20;;;;;;5069015;28;20466;-74
2022/04/27 11:14:20;;;;;;;12.93;10.83;;;18.80;87.80;;;;;;5068158;28;20484;-75
2022/04/27 11:16:49;;;;;;;15.17;13.67;;;19.10;84.80;;;;;;5063974;28;20912;-76
2022/04/27 11:19:17;;;;;;;14.13;12.73;;;19.30;84.70;;;;;;5063445;28;20485;-74
2022/04/27 11:21:44;;;;;;;15.50;13.17;;;19.30;82.50;;;;;;5060895;28;20478;-76
2022/04/27 11:24:13;;;;;;;12.37;10.07;;;19.30;79.80;;;;;;5067662;28;20473;-72
2022/04/27 11:26:46;;;;;;;15.30;13.47;;;19.00;80.30;;;;;;5067396;28;20573;-74
2022/04/27 11:29:14;;;;;;;13.17;11.10;;;18.80;80.70;;;;;;5067286;28;20485;-74
2022/04/27 11:31:43;;;;;;;16.43;13.63;;;18.60;80.60;;;;;;5065795;28;21162;-76
2022/04/27 11:34:28;;;;;;;17.73;10.37;;;18.80;82.70;;;;;;5070008;28;20482;-75
2022/04/27 11:36:56;;;;;;;16.23;11.80;;;18.70;80.10;;;;;;5067014;28;20474;-73
2022/04/27 11:39:24;;;;;;;15.43;12.80;;;18.70;81.50;;;;;;5064476;28;20577;-72
2022/04/27 11:42:01;;;;;;;42.23;13.73;;;18.60;79.90;;;;;;5070148;28;20571;-74
2022/04/27 11:44:29;;;;;;;9.70;8.80;;;18.60;81.20;;;;;;5062440;28;21222;-78
2022/04/27 11:46:56;;;;;;;12.27;11.07;;;18.60;79.80;;;;;;5063185;28;20845;-75
2022/04/27 11:49:24;;;;;;;11.90;10.70;;;;;;;;;;5067920;28;20576;-76
2022/04/27 11:51:52;;;;;;;12.67;11.50;;;18.70;79.80;;;;;;5066071;28;20562;-77
2022/04/27 11:54:27;;;;;;;13.27;11.83;;;18.70;80.80;;;;;;5061561;28;20522;-76
2022/04/27 11:57:00;;;;;;;12.73;11.40;;;19.80;80.60;;;;;;5070931;28;20931;-77
2022/04/27 11:59:41;;;;;;;13.10;11.07;;;18.90;79.40;;;;;;5068733;28;20477;-76
2022/04/27 12:02:09;;;;;;;11.20;10.20;;;18.80;77.90;;;;;;5066219;28;20466;-73
2022/04/27 12:04:36;;;;;;;13.20;11.93;;;19.00;79.80;;;;;;5053795;28;20860;-73
2022/04/27 12:07:13;;;;;;;11.17;10.17;;;19.10;79.00;;;;;;5067377;28;20967;-77
2022/04/27 12:09:39;;;;;;;13.30;11.70;;;19.20;76.10;;;;;;5054380;28;20839;-74
2022/04/27 12:12:09;;;;;;;12.30;11.20;;;19.20;77.00;;;;;;5068262;28;20486;-73
2022/04/27 12:14:38;;;;;;;17.70;15.93;;;19.10;76.80;;;;;;5063119;28;20481;-77
2022/04/27 12:17:06;;;;;;;12.87;11.33;;;19.00;76.90;;;;;;5067156;28;20485;-75
2022/04/27 12:19:34;;;;;;;17.83;13.67;;;19.10;76.70;;;;;;5068530;28;20532;-73
2022/04/27 12:22:15;;;;;;;16.33;12.87;;;19.10;75.60;;;;;;5068733;28;21449;-76
2022/04/27 12:24:47;;;;;;;26.80;16.70;;;19.40;77.20;;;;;;5055251;28;20977;-78
2022/04/27 12:27:19;;;;;;;10.67;9.57;;;19.70;77.40;;;;;;5066969;28;20499;-78
2022/04/27 12:29:46;;;;;;;13.57;12.17;;;19.70;75.10;;;;;;5068182;28;20563;-74
2022/04/27 12:32:12;;;;;;;15.10;13.60;;;19.70;72.90;;;;;;5066870;28;20474;-75
2022/04/27 12:37:32;;;;;;;15.10;12.03;;;20.10;75.90;;;;;;5064011;28;20485;-76
2022/04/27 12:40:13;;;;;;;16.90;12.40;;;20.30;75.40;;;;;;5064308;28;20563;-74
2022/04/27 12:42:58;;;;;;;51.37;20.40;;;20.40;75.60;;;;;;5054472;28;20548;-72
2022/04/27 12:45:25;;;;;;;16.60;12.83;;;20.60;74.90;;;;;;5062801;28;20469;-74
2022/04/27 12:47:52;;;;;;;18.43;14.80;;;20.50;75.20;;;;;;5063784;28;21024;-75
2022/04/27 12:50:19;;;;;;;16.40;13.20;;;20.60;73.20;;;;;;5065589;28;20474;-75
2022/04/27 12:52:48;;;;;;;11.20;10.10;;;20.60;76.30;;;;;;5066408;28;21003;-73
2022/04/27 12:55:16;;;;;;;21.37;15.87;;;20.30;72.00;;;;;;5064847;28;20828;-74
2022/04/27 12:57:44;;;;;;;13.50;12.27;;;19.90;71.30;;;;;;5068011;28;20497;-75
2022/04/27 13:00:12;;;;;;;14.23;12.20;;;20.00;73.90;;;;;;5069539;28;20529;-74
2022/04/27 13:02:39;;;;;;;14.70;13.20;;;19.80;72.10;;;;;;5068126;28;20485;-73
2022/04/27 13:05:08;;;;;;;14.57;13.03;;;20.10;72.50;;;;;;5068112;28;20470;-76
2022/04/27 13:07:36;;;;;;;16.60;13.10;;;20.20;75.70;;;;;;5067102;28;20563;-74
2022/04/27 13:12:50;;;;;;;14.30;10.50;;;20.40;69.70;;;;;;5066608;28;20485;-72